createdAt,value
2023-03-08T00:02:06.397Z,94212.69
2023-03-08T00:04:38.022Z,94219.84
2023-03-08T00:07:09.743Z,94223.91
2023-03-08T00:09:41.315Z,94222.81
2023-03-08T00:12:13.917Z,94231.06
2023-03-08T00:14:45.962Z,94229.13
2023-03-08T00:17:18.120Z,94231.78
2023-03-08T00:19:51.939Z,94228.66
2023-03-08T00:22:25.257Z,94231.19
2023-03-08T00:24:57.175Z,94230.97
2023-03-08T00:27:28.788Z,94229.84
2023-03-08T00:30:00.869Z,94233.19
2023-03-08T00:32:32.590Z,94229.75
2023-03-08T00:35:04.697Z,94226.78
2023-03-08T00:37:36.250Z,94224.81
2023-03-08T00:40:08.898Z,94214.63
2023-03-08T00:42:40.434Z,94222.41
2023-03-08T00:45:12.122Z,94222.06
2023-03-08T00:47:43.647Z,94222.81
2023-03-08T00:50:15.426Z,94229.47
2023-03-08T00:52:47.014Z,94234.81
2023-03-08T00:55:18.592Z,94219.44
2023-03-08T00:57:50.178Z,94230.09
2023-03-08T01:00:21.960Z,94235.28
2023-03-08T01:02:53.821Z,94234.25
2023-03-08T01:05:25.373Z,94235.69
2023-03-08T01:07:56.876Z,94237.75
2023-03-08T01:10:28.376Z,94236.06
2023-03-08T01:12:59.883Z,94241.34
2023-03-08T01:15:35.901Z,94224.63
2023-03-08T01:18:07.485Z,94223.53
2023-03-08T01:20:39.115Z,94227.97
2023-03-08T01:23:11.154Z,94221.09
2023-03-08T01:25:43.437Z,94226.66
2023-03-08T01:28:14.992Z,94218.41
2023-03-08T01:30:46.488Z,94222.50
2023-03-08T01:33:20.964Z,94223.19
2023-03-08T01:35:52.541Z,94222.41
2023-03-08T01:38:25.119Z,94228.78
2023-03-08T01:40:58.154Z,94227.53
2023-03-08T01:43:31.669Z,94230.16
2023-03-08T01:46:27.692Z,94226.28
2023-03-08T01:48:59.480Z,94228.16
2023-03-08T01:51:42.731Z,94209.94
2023-03-08T01:54:28.505Z,94210.59
2023-03-08T01:57:08.866Z,94195.78
2023-03-08T01:59:40.724Z,94190.94
2023-03-08T02:02:12.622Z,94192.03
2023-03-08T02:04:47.410Z,94187.53
2023-03-08T02:07:21.733Z,94183.38
2023-03-08T02:09:53.584Z,94183.31
2023-03-08T02:12:26.285Z,94183.16
2023-03-08T02:14:58.456Z,94186.22
2023-03-08T02:17:30.376Z,94183.97
2023-03-08T02:20:10.850Z,94184.75
2023-03-08T02:22:47.346Z,94179.91
2023-03-08T02:25:26.957Z,94169.00
2023-03-08T02:27:58.645Z,94171.97
2023-03-08T02:30:37.252Z,94174.50
2023-03-08T02:33:09.044Z,94173.34
2023-03-08T02:35:42.768Z,94163.06
2023-03-08T02:38:16.778Z,94158.16
2023-03-08T02:40:51.423Z,94160.78
2023-03-08T02:43:23.016Z,94160.38
2023-03-08T02:45:54.850Z,94162.66
2023-03-08T02:48:26.397Z,94154.75
2023-03-08T02:50:57.956Z,94154.06
2023-03-08T02:53:29.773Z,94162.31
2023-03-08T02:56:01.369Z,94154.06
2023-03-08T02:58:32.969Z,94157.81
2023-03-08T03:01:10.936Z,94156.31
2023-03-08T03:03:42.829Z,94158.34
2023-03-08T03:06:19.832Z,94156.56
2023-03-08T03:08:51.993Z,94148.75
2023-03-08T03:11:23.937Z,94149.63
2023-03-08T03:14:00.341Z,94149.53
2023-03-08T03:16:32.563Z,94144.69
2023-03-08T03:19:04.315Z,94145.59
2023-03-08T03:21:36.260Z,94140.81
2023-03-08T03:24:07.981Z,94131.13
2023-03-08T03:26:39.743Z,94134.25
2023-03-08T03:29:11.353Z,94130.28
2023-03-08T03:31:42.904Z,94131.28
2023-03-08T03:34:14.544Z,94134.69
2023-03-08T03:36:46.289Z,94127.47
2023-03-08T03:39:17.909Z,94123.06
2023-03-08T03:41:49.455Z,94122.81
2023-03-08T03:44:21.023Z,94117.19
2023-03-08T03:46:52.879Z,94111.69
2023-03-08T03:49:24.903Z,94104.19
2023-03-08T03:51:57.227Z,94113.63
2023-03-08T03:54:28.626Z,94106.91
2023-03-08T03:57:01.030Z,94110.56
2023-03-08T03:59:34.033Z,94109.53
2023-03-08T04:02:05.690Z,94119.38
2023-03-08T04:04:37.907Z,94108.22
2023-03-08T04:07:11.979Z,94112.13
2023-03-08T04:09:43.657Z,94111.00
2023-03-08T04:12:15.448Z,94105.47
2023-03-08T04:14:47.099Z,94098.00
2023-03-08T04:17:19.745Z,94093.25
2023-03-08T04:19:51.452Z,94098.16
2023-03-08T04:22:23.336Z,94095.97
2023-03-08T04:24:54.884Z,94097.94
2023-03-08T04:27:26.705Z,94084.69
2023-03-08T04:29:58.251Z,94088.44
2023-03-08T04:32:34.506Z,94075.28
2023-03-08T04:35:06.366Z,94069.63
2023-03-08T04:37:39.017Z,94067.81
2023-03-08T04:40:11.211Z,94064.91
2023-03-08T04:42:43.608Z,94063.44
2023-03-08T04:45:15.446Z,94064.91
2023-03-08T04:47:46.960Z,94060.44
2023-03-08T04:50:18.603Z,94047.19
2023-03-08T04:52:50.148Z,94046.84
2023-03-08T04:55:23.028Z,94043.03
2023-03-08T04:57:55.951Z,94039.22
2023-03-08T05:00:27.525Z,94033.28
2023-03-08T05:02:59.353Z,94034.84
2023-03-08T05:05:30.821Z,94034.03
2023-03-08T05:08:08.197Z,94018.09
2023-03-08T05:10:39.719Z,94017.00
2023-03-08T05:13:11.303Z,94017.69
2023-03-08T05:15:43.382Z,94012.75
2023-03-08T05:18:15.164Z,94000.81
2023-03-08T05:21:02.422Z,93995.53
2023-03-08T05:23:34.533Z,93988.75
2023-03-08T05:26:08.316Z,93995.19
2023-03-08T05:28:42.173Z,93989.94
2023-03-08T05:31:24.279Z,93994.13
2023-03-08T05:33:55.938Z,93990.88
2023-03-08T05:36:27.662Z,93996.53
2023-03-08T05:38:59.147Z,93993.50
2023-03-08T05:41:30.886Z,93979.63
2023-03-08T05:44:02.403Z,93978.53
2023-03-08T05:46:34.379Z,93978.25
2023-03-08T05:49:06.927Z,93977.47
2023-03-08T05:51:38.462Z,93968.88
2023-03-08T05:54:11.804Z,93969.31
2023-03-08T05:56:43.355Z,93968.47
2023-03-08T05:59:15.160Z,93974.50
2023-03-08T06:01:47.793Z,93975.69
2023-03-08T06:04:19.318Z,93977.47
2023-03-08T06:06:50.891Z,93971.94
2023-03-08T06:09:22.397Z,93972.75
2023-03-08T06:11:54.081Z,93960.69
2023-03-08T06:14:25.587Z,93967.78
2023-03-08T06:16:57.151Z,93969.34
2023-03-08T06:19:28.800Z,93977.31
2023-03-08T06:22:00.326Z,93984.19
2023-03-08T06:24:31.786Z,93976.81
2023-03-08T06:27:03.342Z,93972.44
2023-03-08T06:29:35.394Z,93976.31
2023-03-08T06:32:10.077Z,93973.81
2023-03-08T06:34:41.776Z,93984.09
2023-03-08T06:37:14.027Z,93982.31
2023-03-08T06:39:45.586Z,93989.13
2023-03-08T06:42:17.722Z,93987.66
2023-03-08T06:44:49.178Z,93985.09
2023-03-08T06:47:20.981Z,93985.88
2023-03-08T06:49:53.542Z,93983.72
2023-03-08T06:52:26.461Z,93985.28
2023-03-08T06:54:57.929Z,93992.88
2023-03-08T06:57:29.525Z,93984.59
2023-03-08T07:00:01.333Z,93987.34
2023-03-08T07:02:32.845Z,93981.72
2023-03-08T07:05:04.834Z,93981.06
2023-03-08T07:07:36.988Z,93992.44
2023-03-08T07:10:11.066Z,93986.06
2023-03-08T07:12:43.778Z,93992.53
2023-03-08T07:15:19.050Z,93997.88
2023-03-08T07:17:52.421Z,94002.09
2023-03-08T07:20:26.365Z,94017.25
2023-03-08T07:23:01.605Z,94020.66
2023-03-08T07:25:33.190Z,94011.63
2023-03-08T07:28:05.000Z,94003.38
2023-03-08T07:30:36.549Z,93995.13
2023-03-08T07:33:11.478Z,93993.66
2023-03-08T07:35:43.156Z,93991.47
2023-03-08T07:38:15.231Z,93997.59
2023-03-08T07:40:54.912Z,93989.00
2023-03-08T07:43:26.887Z,93986.06
2023-03-08T07:46:02.606Z,93982.34
2023-03-08T07:48:34.456Z,93965.47
2023-03-08T07:51:08.774Z,93985.53
2023-03-08T07:53:40.377Z,93975.78
2023-03-08T07:56:12.009Z,93957.34
2023-03-08T07:58:45.059Z,93953.63
2023-03-08T08:01:17.056Z,93940.88
2023-03-08T08:03:48.608Z,93934.53
2023-03-08T08:06:20.244Z,93939.13
2023-03-08T08:08:52.181Z,93932.78
2023-03-08T08:11:23.807Z,93926.81
2023-03-08T08:13:55.810Z,93911.38
2023-03-08T08:16:27.590Z,93905.44
2023-03-08T08:18:59.761Z,93903.19
2023-03-08T08:21:31.321Z,93905.16
2023-03-08T08:24:03.027Z,93896.84
2023-03-08T08:26:34.603Z,93897.59
2023-03-08T08:29:06.435Z,93885.13
2023-03-08T08:31:38.284Z,93876.06
2023-03-08T08:34:10.338Z,93858.66
2023-03-08T08:36:41.885Z,93859.78
2023-03-08T08:39:13.365Z,93851.47
2023-03-08T08:41:45.165Z,93843.91
2023-03-08T08:44:16.745Z,93834.09
2023-03-08T08:46:49.377Z,93825.38
2023-03-08T08:49:21.013Z,93814.44
2023-03-08T08:51:53.465Z,93803.06
2023-03-08T08:54:24.919Z,93798.91
2023-03-08T08:56:56.478Z,93803.44
2023-03-08T08:59:28.252Z,93801.97
2023-03-08T09:01:59.826Z,93797.41
2023-03-08T09:04:31.480Z,93801.59
2023-03-08T09:07:07.512Z,93784.91
2023-03-08T09:09:39.062Z,93789.47
2023-03-08T09:12:10.801Z,93788.72
2023-03-08T09:14:42.416Z,93783.41
2023-03-08T09:17:13.982Z,93782.66
2023-03-08T09:19:45.510Z,93778.88
2023-03-08T09:22:17.173Z,93765.25
2023-03-08T09:24:51.640Z,93768.28
2023-03-08T09:27:23.175Z,93750.88
2023-03-08T09:29:54.666Z,93756.94
2023-03-08T09:32:26.893Z,93764.13
2023-03-08T09:34:58.450Z,93759.59
2023-03-08T09:37:30.046Z,93764.13
2023-03-08T09:40:02.105Z,93745.94
2023-03-08T09:42:34.144Z,93736.09
2023-03-08T09:45:10.409Z,93751.97
2023-03-08T09:47:51.929Z,93757.66
2023-03-08T09:50:23.463Z,93755.34
2023-03-08T09:53:00.315Z,93754.22
2023-03-08T09:55:34.896Z,93742.81
2023-03-08T09:58:39.555Z,93737.09
2023-03-08T10:01:32.826Z,93713.56
2023-03-08T10:04:19.492Z,93713.47
2023-03-08T10:07:12.478Z,93727.00
2023-03-08T10:09:55.492Z,93731.22
2023-03-08T10:12:36.122Z,93734.31
2023-03-08T10:15:16.552Z,93727.22
2023-03-08T10:18:00.888Z,93723.84
2023-03-08T10:20:37.463Z,93712.44
2023-03-08T10:23:22.047Z,93716.28
2023-03-08T10:25:53.603Z,93734.06
2023-03-08T10:28:26.531Z,93742.75
2023-03-08T10:31:04.407Z,93753.00
2023-03-08T10:33:36.565Z,93768.50
2023-03-08T10:36:25.426Z,93766.22
2023-03-08T10:39:13.501Z,93766.59
2023-03-08T10:41:49.561Z,93755.22
2023-03-08T10:44:33.816Z,93749.13
2023-03-08T10:47:17.731Z,93741.94
2023-03-08T10:49:49.645Z,93741.91
2023-03-08T10:52:26.645Z,93764.28
2023-03-08T10:55:05.652Z,93745.34
2023-03-08T10:57:38.286Z,93754.44
2023-03-08T11:00:40.832Z,93747.59
2023-03-08T11:03:20.994Z,93763.91
2023-03-08T11:05:57.053Z,93757.16
2023-03-08T11:08:35.489Z,93761.31
2023-03-08T11:11:13.027Z,93757.53
2023-03-08T11:13:46.874Z,93752.25
2023-03-08T11:16:23.425Z,93746.19
2023-03-08T11:19:06.690Z,93727.66
2023-03-08T11:22:06.099Z,93718.94
2023-03-08T11:25:02.055Z,93712.16
2023-03-08T11:27:52.510Z,93692.47
2023-03-08T11:30:29.885Z,93690.97
2023-03-08T11:33:31.750Z,93679.59
2023-03-08T11:36:40.694Z,93668.59
2023-03-08T11:39:35.158Z,93665.53
2023-03-08T11:42:20.084Z,93664.75
2023-03-08T11:45:38.198Z,93652.22
2023-03-08T11:48:46.086Z,93656.34
2023-03-08T11:51:23.339Z,93640.75
2023-03-08T11:54:01.265Z,93635.78
2023-03-08T11:56:55.011Z,93634.53
2023-03-08T11:59:53.230Z,93629.91
2023-03-08T12:02:34.608Z,93636.25
2023-03-08T12:05:29.764Z,93635.06
2023-03-08T12:08:16.831Z,93626.66
2023-03-08T12:10:54.629Z,93628.84
2023-03-08T12:13:35.423Z,93636.34
2023-03-08T12:16:29.178Z,93631.69
2023-03-08T12:19:31.142Z,93634.22
2023-03-08T12:22:34.696Z,93629.91
2023-03-08T12:25:24.985Z,93627.94
2023-03-08T12:28:05.698Z,93621.44
2023-03-08T12:31:01.991Z,93621.31
2023-03-08T12:33:34.424Z,93610.63
2023-03-08T12:36:08.011Z,93608.47
2023-03-08T12:38:45.967Z,93619.75
2023-03-08T12:41:30.305Z,93626.13
2023-03-08T12:44:21.649Z,93617.88
2023-03-08T12:47:23.992Z,93612.31
2023-03-08T12:49:56.750Z,93604.97
2023-03-08T12:52:35.427Z,93616.84
2023-03-08T12:55:17.314Z,93615.38
2023-03-08T12:57:53.211Z,93600.81
2023-03-08T13:00:36.449Z,93607.94
2023-03-08T13:03:13.938Z,93619.22
2023-03-08T13:05:47.732Z,93618.72
2023-03-08T13:08:27.261Z,93616.22
2023-03-08T13:11:10.630Z,93625.78
2023-03-08T13:13:57.523Z,93633.22
2023-03-08T13:16:35.579Z,93618.94
2023-03-08T13:19:16.740Z,93619.38
2023-03-08T13:22:13.200Z,93618.19
2023-03-08T13:24:58.214Z,93591.09
2023-03-08T13:28:02.276Z,93602.50
2023-03-08T13:30:37.533Z,93607.44
2023-03-08T13:33:19.001Z,93596.75
2023-03-08T13:35:59.645Z,93603.91
2023-03-08T13:38:34.158Z,93608.72
2023-03-08T13:41:05.685Z,93612.41
2023-03-08T13:43:37.225Z,93612.31
2023-03-08T13:46:16.537Z,93618.19
2023-03-08T13:48:48.562Z,93616.25
2023-03-08T13:51:23.542Z,93617.34
2023-03-08T13:53:57.080Z,93629.69
2023-03-08T13:56:28.846Z,93597.38
2023-03-08T13:59:00.691Z,93622.50
2023-03-08T14:01:32.268Z,93607.94
2023-03-08T14:04:11.782Z,93605.78
2023-03-08T14:06:52.971Z,93601.72
2023-03-08T14:09:28.617Z,93601.06
2023-03-08T14:12:04.874Z,93602.66
2023-03-08T14:14:40.608Z,93591.94
2023-03-08T14:17:22.271Z,93599.06
2023-03-08T14:20:17.240Z,93603.06
2023-03-08T14:22:51.370Z,93609.00
2023-03-08T14:25:31.965Z,93603.16
2023-03-08T14:28:03.622Z,93596.66
2023-03-08T14:30:36.396Z,93606.59
2023-03-08T14:33:16.755Z,93613.75
2023-03-08T14:36:00.391Z,93599.22
2023-03-08T14:38:34.349Z,93601.91
2023-03-08T14:41:11.593Z,93588.84
2023-03-08T14:43:51.043Z,93611.16
2023-03-08T14:46:24.198Z,93582.88
2023-03-08T14:49:04.887Z,93594.34
2023-03-08T14:51:43.121Z,93602.47
2023-03-08T14:54:32.894Z,93579.78
2023-03-08T14:57:28.327Z,93585.13
2023-03-08T15:00:14.244Z,93578.75
2023-03-08T15:02:45.818Z,93567.97
2023-03-08T15:05:28.794Z,93551.56
2023-03-08T15:08:00.956Z,93559.44
2023-03-08T15:10:37.767Z,93571.31
2023-03-08T15:13:19.077Z,93535.09
2023-03-08T15:15:50.832Z,93551.50
2023-03-08T15:18:22.504Z,93531.94
2023-03-08T15:20:54.130Z,93534.34
2023-03-08T15:23:35.498Z,93534.19
2023-03-08T15:26:07.778Z,93530.69
2023-03-08T15:28:39.506Z,93518.09
2023-03-08T15:31:11.100Z,93517.22
2023-03-08T15:33:42.679Z,93518.78
2023-03-08T15:36:16.599Z,93516.16
2023-03-08T15:38:48.424Z,93516.44
2023-03-08T15:41:20.403Z,93523.00
2023-03-08T15:43:54.464Z,93501.13
2023-03-08T15:46:28.561Z,93529.06
2023-03-08T15:49:00.215Z,93485.25
2023-03-08T15:51:34.570Z,93499.97
2023-03-08T15:54:07.399Z,93497.16
2023-03-08T15:56:38.910Z,93498.97
2023-03-08T15:59:10.594Z,93489.97
2023-03-08T16:01:42.244Z,93486.16
2023-03-08T16:04:13.914Z,93494.44
2023-03-08T16:06:45.426Z,93496.97
2023-03-08T16:09:17.005Z,93483.75
2023-03-08T16:11:48.548Z,93483.44
2023-03-08T16:14:20.197Z,93484.88
2023-03-08T16:16:51.743Z,93467.94
2023-03-08T16:19:24.671Z,93474.38
2023-03-08T16:21:56.212Z,93475.88
2023-03-08T16:24:28.978Z,93471.22
2023-03-08T16:27:00.631Z,93471.72
2023-03-08T16:29:33.592Z,93466.13
2023-03-08T16:32:05.509Z,93469.31
2023-03-08T16:34:37.892Z,93469.06
2023-03-08T16:37:09.319Z,93469.56
2023-03-08T16:39:41.991Z,93459.72
2023-03-08T16:42:13.932Z,93460.38
2023-03-08T16:44:50.617Z,93471.91
2023-03-08T16:47:23.957Z,93469.81
2023-03-08T16:49:55.708Z,93456.28
2023-03-08T16:52:27.580Z,93457.53
2023-03-08T16:54:59.112Z,93465.16
2023-03-08T16:57:30.780Z,93472.81
2023-03-08T17:00:02.303Z,93462.22
2023-03-08T17:02:33.952Z,93467.34
2023-03-08T17:05:06.659Z,93471.94
2023-03-08T17:07:38.624Z,93469.03
2023-03-08T17:10:10.762Z,93468.34
2023-03-08T17:12:42.295Z,93472.91
2023-03-08T17:15:13.823Z,93483.56
2023-03-08T17:17:45.317Z,93485.16
2023-03-08T17:20:17.061Z,93474.91
2023-03-08T17:22:48.764Z,93492.72
2023-03-08T17:25:20.441Z,93483.28
2023-03-08T17:27:51.992Z,93495.41
2023-03-08T17:30:23.828Z,93499.22
2023-03-08T17:32:55.639Z,93503.84
2023-03-08T17:35:27.468Z,93513.72
2023-03-08T17:37:59.161Z,93512.22
2023-03-08T17:40:30.677Z,93518.63
2023-03-08T17:43:02.842Z,93520.88
2023-03-08T17:45:34.425Z,93529.19
2023-03-08T17:48:06.053Z,93516.22
2023-03-08T17:50:37.640Z,93509.75
2023-03-08T17:53:12.618Z,93496.47
2023-03-08T17:55:44.342Z,93499.88
2023-03-08T17:58:15.944Z,93489.72
2023-03-08T18:00:47.474Z,93513.34
2023-03-08T18:03:19.141Z,93511.47
2023-03-08T18:05:52.996Z,93530.50
2023-03-08T18:08:24.480Z,93512.22
2023-03-08T18:10:56.136Z,93512.59
2023-03-08T18:13:27.686Z,93511.84
2023-03-08T18:15:59.834Z,93512.59
2023-03-08T18:18:31.604Z,93521.41
2023-03-08T18:21:13.494Z,93515.00
2023-03-08T18:23:46.564Z,93528.75
2023-03-08T18:26:19.140Z,93529.50
2023-03-08T18:28:50.993Z,93541.66
2023-03-08T18:31:26.036Z,93546.63
2023-03-08T18:33:57.815Z,93540.16
2023-03-08T18:36:29.381Z,93545.41
2023-03-08T18:39:02.849Z,93552.63
2023-03-08T18:41:35.369Z,93552.97
2023-03-08T18:44:07.449Z,93562.84
2023-03-08T18:46:41.682Z,93560.91
2023-03-08T18:49:14.793Z,93556.69
2023-03-08T18:51:46.437Z,93553.19
2023-03-08T18:54:20.931Z,93557.72
2023-03-08T18:56:59.101Z,93561.47
2023-03-08T18:59:33.650Z,93555.81
2023-03-08T19:02:05.213Z,93584.81
2023-03-08T19:04:41.132Z,93573.53
2023-03-08T19:07:15.399Z,93563.16
2023-03-08T19:09:46.923Z,93585.66
2023-03-08T19:12:18.501Z,93600.31
2023-03-08T19:14:52.314Z,93601.16
2023-03-08T19:17:23.892Z,93610.47
2023-03-08T19:19:55.407Z,93620.03
2023-03-08T19:22:26.993Z,93610.44
2023-03-08T19:24:58.486Z,93591.88
2023-03-08T19:27:30.064Z,93593.31
2023-03-08T19:30:01.826Z,93606.53
2023-03-08T19:32:36.226Z,93591.94
2023-03-08T19:35:09.363Z,93584.78
2023-03-08T19:37:41.892Z,93605.63
2023-03-08T19:40:19.520Z,93589.41
2023-03-08T19:42:51.789Z,93599.34
2023-03-08T19:45:25.655Z,93615.22
2023-03-08T19:47:57.217Z,93624.38
2023-03-08T19:50:28.774Z,93642.28
2023-03-08T19:53:00.479Z,93634.72
2023-03-08T19:55:32.056Z,93625.75
2023-03-08T19:58:03.563Z,93620.88
2023-03-08T20:00:35.151Z,93616.06
2023-03-08T20:03:09.416Z,93600.22
2023-03-08T20:05:45.722Z,93608.19
2023-03-08T20:08:17.422Z,93598.41
2023-03-08T20:10:49.816Z,93590.06
2023-03-08T20:13:21.423Z,93600.66
2023-03-08T20:15:52.911Z,93604.81
2023-03-08T20:18:26.168Z,93611.31
2023-03-08T20:20:59.179Z,93618.88
2023-03-08T20:23:33.866Z,93624.88
2023-03-08T20:26:06.675Z,93634.75
2023-03-08T20:28:38.572Z,93609.72
2023-03-08T20:31:11.463Z,93598.38
2023-03-08T20:33:43.671Z,93600.97
2023-03-08T20:36:16.550Z,93594.88
2023-03-08T20:38:48.172Z,93595.22
2023-03-08T20:41:21.616Z,93580.78
2023-03-08T20:43:55.594Z,93590.72
2023-03-08T20:46:32.869Z,93590.72
2023-03-08T20:49:04.918Z,93599.44
2023-03-08T20:51:36.495Z,93599.34
2023-03-08T20:54:08.640Z,93584.22
2023-03-08T20:56:41.382Z,93584.53
2023-03-08T20:59:13.353Z,93576.22
2023-03-08T21:01:45.621Z,93582.25
2023-03-08T21:04:18.244Z,93571.63
2023-03-08T21:06:51.273Z,93570.13
2023-03-08T21:09:22.871Z,93555.66
2023-03-08T21:11:54.420Z,93556.75
2023-03-08T21:14:26.345Z,93558.66
2023-03-08T21:16:57.993Z,93551.78
2023-03-08T21:19:29.555Z,93540.75
2023-03-08T21:22:03.285Z,93540.38
2023-03-08T21:24:35.696Z,93535.75
2023-03-08T21:27:08.273Z,93538.06
2023-03-08T21:29:41.273Z,93525.50
2023-03-08T21:32:12.824Z,93523.19
2023-03-08T21:34:47.543Z,93527.38
2023-03-08T21:37:20.194Z,93517.47
2023-03-08T21:39:51.952Z,93515.22
2023-03-08T21:42:24.569Z,93518.97
2023-03-08T21:44:56.215Z,93522.06
2023-03-08T21:47:27.928Z,93514.47
2023-03-08T21:49:59.615Z,93518.63
2023-03-08T21:52:31.107Z,93515.94
2023-03-08T21:55:02.651Z,93511.06
2023-03-08T21:57:34.306Z,93516.31
2023-03-08T22:00:07.160Z,93500.03
2023-03-08T22:02:44.894Z,93500.78
2023-03-08T22:05:16.606Z,93506.44
2023-03-08T22:07:48.211Z,93500.31
2023-03-08T22:10:20.352Z,93504.47
2023-03-08T22:12:51.959Z,93498.00
2023-03-08T22:15:23.540Z,93491.97
2023-03-08T22:17:55.049Z,93494.59
2023-03-08T22:20:27.551Z,93490.09
2023-03-08T22:22:59.114Z,93488.94
2023-03-08T22:25:30.772Z,93480.25
2023-03-08T22:28:03.658Z,93483.63
2023-03-08T22:30:35.211Z,93473.41
2023-03-08T22:33:07.881Z,93477.97
2023-03-08T22:35:39.616Z,93474.97
2023-03-08T22:38:12.573Z,93480.28
2023-03-08T22:40:44.470Z,93471.16
2023-03-08T22:43:16.113Z,93468.94
2023-03-08T22:45:47.635Z,93466.75
2023-03-08T22:48:19.390Z,93458.78
2023-03-08T22:50:58.731Z,93464.38
2023-03-08T22:53:41.076Z,93473.56
2023-03-08T22:56:21.929Z,93467.44
2023-03-08T22:58:53.966Z,93466.69
2023-03-08T23:01:27.785Z,93472.00
2023-03-08T23:04:01.037Z,93465.13
2023-03-08T23:06:35.517Z,93461.38
2023-03-08T23:09:12.882Z,93460.22
2023-03-08T23:11:45.010Z,93453.75
2023-03-08T23:14:16.998Z,93459.47
2023-03-08T23:16:48.773Z,93459.88
2023-03-08T23:19:21.852Z,93457.22
2023-03-08T23:21:53.740Z,93459.06
2023-03-08T23:24:25.301Z,93461.31
2023-03-08T23:27:01.759Z,93460.56
2023-03-08T23:29:33.404Z,93465.50
2023-03-08T23:32:05.893Z,93465.03
2023-03-08T23:34:38.767Z,93465.72
2023-03-08T23:37:11.527Z,93461.47
2023-03-08T23:39:43.434Z,93459.81
2023-03-08T23:42:15.018Z,93457.84
2023-03-08T23:44:46.651Z,93461.16
2023-03-08T23:47:18.221Z,93464.13
2023-03-08T23:49:49.699Z,93461.72
2023-03-08T23:52:21.373Z,93466.91
2023-03-08T23:54:53.211Z,93460.72
2023-03-08T23:57:26.112Z,93457.91
2023-03-08T23:59:58.010Z,93471.47
